Terminal Aerodrome Forecast
Issued by NWS

Home | Current Version | Previous Version | Text Only | Print | Product List | Glossary On
Versions: 1 2 3 4 5 6 7 8 9 10 11 12 13 14 15 16 17 18 19 20 21 22 23 24 25 26 27 28
733
FTUS41 KOKX 171721
TAFSWF
TAF
KSWF 171721Z 1718/1824 30010KT 2SM -SN BR VV005
     FM172000 31011KT P6SM BKN010 BKN030 BKN150
     FM180000 31012G18KT P6SM SCT010 BKN040
     FM180400 29006KT P6SM SKC
     FM181500 30012G18KT P6SM SKC
     FM182000 31013G20KT P6SM SCT030
      AMD NOT SKED=

USA.gov is the U.S. government's official web portal to all federal, state and local government web resources and services.